Meteorología y climatología de Navarra
Datos de la estación - Meteo Navarra

Estación de Tudela (Montes del Cierzo) GN

Altitud 314 m.


Datos desde el 07/12/2018 hasta el 08/12/2018 en horario solar
Los datos son PROVISIONALES

Anterior Página 1 de 1 Siguiente Descargar: Formato para Excel 2000 o superior   Formato csv   Formato para OpenOffice Calc
Fecha Temperatura Humedad relativa Radiación global Insolación Precipitación Velocidad viento 10 m Velocidad viento 10 m Dirección viento 10 m
ºC % W/m² s l/m² m/s km/h º
07/12/2018 0:00 5.6 91 0.0 0 0.0 2.0 7.2 275
07/12/2018 0:10 5.7 92 0.0 0 0.0 2.0 7.2 284
07/12/2018 0:20 5.6 91 0.0 0 0.0 1.9 7.0 255
07/12/2018 0:30 5.3 92 0.0 0 0.0 2.4 8.8 253
07/12/2018 0:40 5.9 92 0.0 0 0.0 2.7 9.8 288
07/12/2018 0:50 6.1 89 0.0 0 0.0 2.6 9.3 298
07/12/2018 1:00 5.4 89 0.0 0 0.0 2.5 9.0 298
07/12/2018 1:10 4.8 92 0.0 0 0.0 2.7 9.6 297
07/12/2018 1:20 4.5 93 0.0 0 0.0 2.4 8.5 275
07/12/2018 1:30 4.3 94 0.0 0 0.0 2.7 9.8 275
07/12/2018 1:40 4.2 95 0.0 0 0.0 3.4 12.2 289
07/12/2018 1:50 4.3 95 0.0 0 0.0 2.7 9.8 269
07/12/2018 2:00 4.1 95 0.0 0 0.0 2.8 10.2 266
07/12/2018 2:10 4.5 95 0.0 0 0.0 2.7 9.8 273
07/12/2018 2:20 4.3 94 0.0 0 0.0 2.0 7.3 236
07/12/2018 2:30 3.7 95 0.0 0 0.0 2.4 8.5 229
07/12/2018 2:40 3.5 96 0.0 0 0.0 2.4 8.8 231
07/12/2018 2:50 3.6 96 0.0 0 0.0 2.1 7.7 235
07/12/2018 3:00 3.4 96 0.0 0 0.0 2.1 7.6 229
07/12/2018 3:10 3.4 97 0.0 0 0.0 2.1 7.5 225
07/12/2018 3:20 3.3 97 0.0 0 0.0 1.5 5.5 228
07/12/2018 3:30 3.3 97 0.0 0 0.0 1.2 4.5 257
07/12/2018 3:40 3.3 97 0.0 0 0.0 0.8 3.0 238
07/12/2018 3:50 3.4 97 0.0 0 0.0 1.3 4.6 290
07/12/2018 4:00 2.9 97 0.0 0 0.0 1.9 6.9 243
07/12/2018 4:10 2.9 98 0.0 0 0.0 2.4 8.7 227
07/12/2018 4:20 3.0 98 0.0 0 0.0 2.4 8.6 235
07/12/2018 4:30 3.3 98 0.0 0 0.0 2.0 7.1 248
07/12/2018 4:40 3.0 97 0.0 0 0.0 2.5 9.0 232
07/12/2018 4:50 2.8 98 0.0 0 0.0 2.8 10.2 230
07/12/2018 5:00 2.8 98 0.0 0 0.0 2.5 9.0 228
07/12/2018 5:10 2.8 98 0.0 0 0.0 2.0 7.1 251
07/12/2018 5:20 2.5 97 0.0 0 0.0 2.6 9.3 255
07/12/2018 5:30 2.4 98 0.0 0 0.0 2.5 9.1 268
07/12/2018 5:40 2.5 98 0.0 0 0.0 3.1 11.2 272
07/12/2018 5:50 2.6 98 0.0 0 0.0 2.9 10.6 262
07/12/2018 6:00 2.2 97 0.0 0 0.0 2.6 9.5 246
07/12/2018 6:10 2.1 98 0.0 0 0.0 2.4 8.5 235
07/12/2018 6:20 1.9 98 0.0 0 0.0 1.9 6.8 250
07/12/2018 6:30 1.8 98 0.0 0 0.0 2.5 8.9 270
07/12/2018 6:40 1.8 98 0.0 0 0.0 2.9 10.5 269
07/12/2018 6:50 1.9 98 0.0 0 0.0 2.6 9.5 250
07/12/2018 7:00 1.7 98 0.0 0 0.0 2.7 9.6 230
07/12/2018 7:10 1.4 98 0.0 0 0.0 2.7 9.8 240
07/12/2018 7:20 1.3 98 0.0 0 0.0 3.1 11.0 244
07/12/2018 7:30 2.0 99 0.0 0 0.0 3.4 12.2 269
07/12/2018 7:40 2.2 98 23.8 102 0.0 3.9 13.9 258
07/12/2018 7:50 2.7 97 42.4 600 0.0 3.5 12.7 254
07/12/2018 8:00 3.3 95 50.5 484 0.0 2.7 9.6 246
07/12/2018 8:10 3.2 93 81.2 580 0.0 2.8 10.2 232
07/12/2018 8:20 3.7 92 104.8 600 0.0 2.4 8.6 248
07/12/2018 8:30 4.7 90 123.2 600 0.0 2.6 9.4 258
07/12/2018 8:40 5.3 87 144.5 600 0.0 2.3 8.1 237
07/12/2018 8:50 5.4 87 183.9 600 0.0 1.8 6.5 233
07/12/2018 9:00 6.1 86 213.1 600 0.0 1.4 5.1 246
07/12/2018 9:10 6.6 84 235.2 600 0.0 1.7 6.2 264
07/12/2018 9:20 7.3 82 257.9 600 0.0 1.6 5.8 270
07/12/2018 9:30 7.7 79 276.0 600 0.0 1.6 5.8 282
07/12/2018 9:40 8.3 77 286.5 600 0.0 1.3 4.6 281
07/12/2018 9:50 9.0 74 295.9 600 0.0 1.2 4.2 259
07/12/2018 10:00 9.0 73 306.2 600 0.0 1.2 4.2 245
07/12/2018 10:10 9.1 71 320.1 600 0.0 1.5 5.4 226
07/12/2018 10:20 9.5 69 340.2 600 0.0 0.8 2.8 230
07/12/2018 10:30 9.9 67 362.9 600 0.0 1.0 3.6 359
07/12/2018 10:40 10.2 66 388.5 600 0.0 0.9 3.2 342
07/12/2018 10:50 10.0 69 414.2 600 0.0 2.4 8.6 1
07/12/2018 11:00 10.2 68 436.9 600 0.0 1.5 5.4 341
07/12/2018 11:10 10.2 66 454.2 600 0.0 1.5 5.2 354
07/12/2018 11:20 10.6 67 462.2 600 0.0 1.5 5.4 333
07/12/2018 11:30 11.2 65 463.2 600 0.0 1.8 6.3 332
07/12/2018 11:40 11.6 64 458.9 600 0.0 2.0 7.2 339
07/12/2018 11:50 11.6 64 452.9 600 0.0 1.2 4.3 339
07/12/2018 12:00 11.6 63 453.0 600 0.0 1.2 4.3 349
07/12/2018 12:10 12.0 63 449.1 600 0.0 1.7 6.1 350
07/12/2018 12:20 12.1 62 430.6 600 0.0 1.7 6.3 345
07/12/2018 12:30 12.6 61 446.4 600 0.0 1.7 6.0 355
07/12/2018 12:40 13.0 60 444.3 600 0.0 1.1 4.1 337
07/12/2018 12:50 12.9 60 439.8 600 0.0 2.6 9.5 4
07/12/2018 13:00 13.1 62 431.6 600 0.0 2.1 7.5 356
07/12/2018 13:10 13.4 61 421.6 600 0.0 3.5 12.6 349
07/12/2018 13:20 13.6 60 408.6 600 0.0 3.0 10.8 346
07/12/2018 13:30 13.7 60 393.1 600 0.0 2.7 9.6 348
07/12/2018 13:40 14.0 59 379.8 600 0.0 3.1 11.0 345
07/12/2018 13:50 14.1 59 366.4 600 0.0 3.0 10.7 341
07/12/2018 14:00 14.0 59 349.8 600 0.0 3.8 13.5 346
07/12/2018 14:10 14.2 60 328.5 600 0.0 2.3 8.4 340
07/12/2018 14:20 14.5 60 305.9 600 0.0 2.6 9.5 339
07/12/2018 14:30 14.4 59 284.2 600 0.0 3.1 11.1 321
07/12/2018 14:40 14.4 58 261.3 600 0.0 3.5 12.7 320
07/12/2018 14:50 14.5 58 238.0 600 0.0 3.0 10.9 324
07/12/2018 15:00 14.5 58 210.6 600 0.0 2.9 10.4 322
07/12/2018 15:10 14.3 59 186.9 600 0.0 3.7 13.2 316
07/12/2018 15:20 14.2 61 161.8 600 0.0 3.3 11.7 321
07/12/2018 15:30 14.0 62 136.8 600 0.0 3.7 13.4 318
07/12/2018 15:40 13.6 64 100.2 536 0.0 3.6 13.0 323
07/12/2018 15:50 13.2 65 53.4 82 0.0 3.6 13.0 326
07/12/2018 16:00 12.8 67 33.3 0 0.0 3.3 11.9 325
07/12/2018 16:10 12.7 67 19.9 0 0.0 3.6 12.9 326
07/12/2018 16:20 12.1 69 0.0 0 0.0 3.4 12.2 333
07/12/2018 16:30 12.2 67 0.0 0 0.0 3.7 13.2 323
07/12/2018 16:40 12.2 67 0.0 0 0.0 3.3 12.0 330
07/12/2018 16:50 12.1 68 0.0 0 0.0 3.9 14.1 326
07/12/2018 17:00 12.1 67 0.0 0 0.0 4.2 15.1 321
07/12/2018 17:10 11.8 68 0.0 0 0.0 3.6 12.8 322
07/12/2018 17:20 11.5 69 0.0 0 0.0 3.2 11.3 326
07/12/2018 17:30 11.2 70 0.0 0 0.0 2.8 10.2 326
07/12/2018 17:40 11.4 70 0.0 0 0.0 3.2 11.4 328
07/12/2018 17:50 11.5 69 0.0 0 0.0 2.9 10.5 309
07/12/2018 18:00 11.3 70 0.0 0 0.0 2.0 7.0 299
07/12/2018 18:10 11.4 70 0.0 0 0.0 3.3 12.0 314
07/12/2018 18:20 11.5 70 0.0 0 0.0 4.0 14.4 311
07/12/2018 18:30 11.4 71 0.0 0 0.0 3.1 11.3 326
07/12/2018 18:40 11.4 71 0.0 0 0.0 3.7 13.2 318
07/12/2018 18:50 11.3 71 0.0 0 0.0 3.5 12.5 333
07/12/2018 19:00 10.9 73 0.0 0 0.0 3.2 11.6 326
07/12/2018 19:10 10.9 73 0.0 0 0.0 4.3 15.5 304
07/12/2018 19:20 10.7 74 0.0 0 0.0 3.9 14.0 302
07/12/2018 19:30 10.6 75 0.0 0 0.0 2.8 10.2 324
07/12/2018 19:40 11.1 73 0.0 0 0.0 3.7 13.2 332
07/12/2018 19:50 11.4 71 0.0 0 0.0 4.3 15.4 331
07/12/2018 20:00 11.4 72 0.0 0 0.0 4.4 15.9 330
07/12/2018 20:10 11.5 71 0.0 0 0.0 5.0 17.8 327
07/12/2018 20:20 11.6 71 0.0 0 0.0 6.7 23.9 323
07/12/2018 20:30 11.7 71 0.0 0 0.0 6.4 22.9 321
07/12/2018 20:40 11.6 72 0.0 0 0.0 5.7 20.6 318
07/12/2018 20:50 11.7 72 0.0 0 0.0 5.9 21.2 315
07/12/2018 21:00 11.6 72 0.0 0 0.0 5.0 18.0 317
07/12/2018 21:10 11.6 72 0.0 0 0.0 4.7 17.1 321
07/12/2018 21:20 11.5 72 0.0 0 0.0 4.9 17.6 322
07/12/2018 21:30 11.5 72 0.0 0 0.0 4.5 16.3 320
07/12/2018 21:40 11.4 73 0.0 0 0.0 5.1 18.3 314
07/12/2018 21:50 11.4 74 0.0 0 0.0 6.3 22.6 309
07/12/2018 22:00 11.3 75 0.0 0 0.0 5.8 20.8 310
07/12/2018 22:10 11.2 76 0.0 0 0.0 5.2 18.5 306
07/12/2018 22:20 11.0 77 0.0 0 0.0 4.6 16.6 303
07/12/2018 22:30 11.0 78 0.0 0 0.0 4.6 16.4 300
07/12/2018 22:40 10.8 79 0.0 0 0.0 4.7 17.0 298
07/12/2018 22:50 10.7 81 0.0 0 0.0 4.6 16.5 294
07/12/2018 23:00 10.5 82 0.0 0 0.0 4.9 17.6 294
07/12/2018 23:10 10.5 82 0.0 0 0.0 4.1 14.8 297
07/12/2018 23:20 10.5 82 0.0 0 0.0 4.0 14.5 301
07/12/2018 23:30 10.6 81 0.0 0 0.0 2.5 9.0 331
07/12/2018 23:40 10.6 80 0.0 0 0.0 3.7 13.1 334
07/12/2018 23:50 10.6 80 0.0 0 0.0 2.5 9.0 329
Anterior Página 1 de 1 Siguiente

NOTA: Tipo de datos según el color:
   - Valores diarios o 10 minutos correctos
   - Valores diarios calculados a partir de un número de datos 10 minutos menor que 144 y mayor que 120, o de un número de datos semihorarios menor que 48 y mayor que 40 (caso de las estaciones de Riegos de Navarra y del MARM)
   - Valores diez minutos estimados


Contacto        Enlaces        Aviso legal